createdAt,value
2017-08-14T00:00:04.483Z,1003.15
2017-08-14T00:01:14.516Z,1003.14
2017-08-14T00:02:24.955Z,1003.15
2017-08-14T00:03:34.669Z,1003.17
2017-08-14T00:04:44.695Z,1003.16
2017-08-14T00:05:55.049Z,1003.15
2017-08-14T00:07:05.398Z,1003.16
2017-08-14T00:08:15.809Z,1003.17
2017-08-14T00:09:25.862Z,1003.18
2017-08-14T00:10:36.229Z,1003.18
2017-08-14T00:11:46.252Z,1003.19
2017-08-14T00:12:56.291Z,1003.19
2017-08-14T00:14:06.379Z,1003.18
2017-08-14T00:15:16.420Z,1003.22
2017-08-14T00:16:26.467Z,1003.23
2017-08-14T00:17:36.823Z,1003.2
2017-08-14T00:18:46.849Z,1003.21
2017-08-14T00:19:56.938Z,1003.28
2017-08-14T00:21:07.302Z,1003.23
2017-08-14T00:22:17.666Z,1003.28
2017-08-14T00:23:27.701Z,1003.23
2017-08-14T00:24:37.736Z,1003.24
2017-08-14T00:25:47.824Z,1003.22
2017-08-14T00:26:58.193Z,1003.22
2017-08-14T00:28:08.549Z,1003.22
2017-08-14T00:29:18.912Z,1003.28
2017-08-14T00:30:29.258Z,1003.27
2017-08-14T00:31:39.355Z,1003.27
2017-08-14T00:32:49.707Z,1003.28
2017-08-14T00:34:00.050Z,1003.28
2017-08-14T00:35:09.789Z,1003.29
2017-08-14T00:36:20.127Z,1003.28
2017-08-14T00:37:30.227Z,1003.29
2017-08-14T00:38:40.592Z,1003.3
2017-08-14T00:39:50.941Z,1003.31
2017-08-14T00:41:01.298Z,1003.35
2017-08-14T00:42:11.643Z,1003.33
2017-08-14T00:43:22.043Z,1003.34
2017-08-14T00:44:32.088Z,1003.37
2017-08-14T00:45:42.431Z,1003.38
2017-08-14T00:46:52.464Z,1003.36
2017-08-14T00:48:02.807Z,1003.35
2017-08-14T00:49:13.202Z,1003.32
2017-08-14T00:50:23.529Z,1003.33
2017-08-14T00:51:33.888Z,1003.3
2017-08-14T00:52:44.247Z,1003.3
2017-08-14T00:53:56.445Z,1003.34
2017-08-14T00:55:06.849Z,1003.28
2017-08-14T00:56:16.880Z,1003.31
2017-08-14T00:57:27.223Z,1003.4
2017-08-14T00:58:37.275Z,1003.35
2017-08-14T00:59:47.628Z,1003.36
2017-08-14T01:00:58.011Z,1003.37
2017-08-14T01:02:08.389Z,1003.37
2017-08-14T01:03:18.433Z,1003.35
2017-08-14T01:04:28.779Z,1003.33
2017-08-14T01:05:38.823Z,1003.32
2017-08-14T01:06:49.221Z,1003.34
2017-08-14T01:07:59.564Z,1003.34
2017-08-14T01:09:10.217Z,1003.35
2017-08-14T01:10:20.285Z,1003.38
2017-08-14T01:11:30.307Z,1003.33
2017-08-14T01:12:40.707Z,1003.36
2017-08-14T01:13:50.734Z,1003.41
2017-08-14T01:15:00.469Z,1003.38
2017-08-14T01:16:10.814Z,1003.37
2017-08-14T01:17:21.164Z,1003.4
2017-08-14T01:18:31.571Z,1003.41
2017-08-14T01:19:41.923Z,1003.44
2017-08-14T01:20:52.278Z,1003.38
2017-08-14T01:22:02.646Z,1003.38
2017-08-14T01:23:12.694Z,1003.4
2017-08-14T01:24:23.090Z,1003.38
2017-08-14T01:25:33.431Z,1003.35
2017-08-14T01:26:43.772Z,1003.32
2017-08-14T01:27:54.104Z,1003.36
2017-08-14T01:29:04.461Z,1003.41
2017-08-14T01:30:14.863Z,1003.34
2017-08-14T01:31:24.896Z,1003.38
2017-08-14T01:32:35.241Z,1003.41
2017-08-14T01:33:45.593Z,1003.33
2017-08-14T01:34:55.618Z,1003.31
2017-08-14T01:36:06.007Z,1003.31
2017-08-14T01:37:16.364Z,1003.31
2017-08-14T01:38:26.718Z,1003.3
2017-08-14T01:39:37.057Z,1003.25
2017-08-14T01:40:47.403Z,1003.31
2017-08-14T01:41:57.474Z,1003.27
2017-08-14T01:43:07.821Z,1003.28
2017-08-14T01:44:18.179Z,1003.29
2017-08-14T01:45:28.221Z,1003.28
2017-08-14T01:46:38.278Z,1003.3
2017-08-14T01:47:48.350Z,1003.31
2017-08-14T01:48:58.386Z,1003.31
2017-08-14T01:50:08.730Z,1003.32
2017-08-14T01:51:18.757Z,1003.32
2017-08-14T01:52:28.826Z,1003.3
2017-08-14T01:53:38.596Z,1003.31
2017-08-14T01:54:48.316Z,1003.33
2017-08-14T01:55:58.349Z,1003.28
2017-08-14T01:57:08.393Z,1003.31
2017-08-14T01:58:18.431Z,1003.3
2017-08-14T01:59:28.813Z,1003.31
2017-08-14T02:00:39.159Z,1003.27
2017-08-14T02:01:49.517Z,1003.3
2017-08-14T02:02:59.564Z,1003.27
2017-08-14T02:04:09.606Z,1003.25
2017-08-14T02:05:19.717Z,1003.29
2017-08-14T02:06:29.768Z,1003.26
2017-08-14T02:07:39.828Z,1003.23
2017-08-14T02:08:49.561Z,1003.21
2017-08-14T02:09:59.605Z,1003.24
2017-08-14T02:11:09.378Z,1003.24
2017-08-14T02:12:19.727Z,1003.25
2017-08-14T02:13:31.508Z,1003.26
2017-08-14T02:14:41.542Z,1003.24
2017-08-14T02:15:51.899Z,1003.27
2017-08-14T02:17:02.306Z,1003.24
2017-08-14T02:18:12.645Z,1003.24
2017-08-14T02:19:22.997Z,1003.2
2017-08-14T02:20:33.344Z,1003.25
2017-08-14T02:21:43.687Z,1003.25
2017-08-14T02:22:54.078Z,1003.25
2017-08-14T02:24:03.800Z,1003.26
2017-08-14T02:25:14.165Z,1003.22
2017-08-14T02:26:24.521Z,1003.25
2017-08-14T02:27:34.882Z,1003.25
2017-08-14T02:28:44.989Z,1003.25
2017-08-14T02:29:55.350Z,1003.25
2017-08-14T02:31:05.964Z,1003.23
2017-08-14T02:32:15.994Z,1003.26
2017-08-14T02:33:26.050Z,1003.22
2017-08-14T02:34:36.455Z,1003.26
2017-08-14T02:35:46.482Z,1003.24
2017-08-14T02:36:56.856Z,1003.19
2017-08-14T02:38:06.884Z,1003.23
2017-08-14T02:39:17.238Z,1003.24
2017-08-14T02:40:27.324Z,1003.2
2017-08-14T02:41:37.684Z,1003.26
2017-08-14T02:42:47.392Z,1003.24
2017-08-14T02:43:57.117Z,1003.21
2017-08-14T02:45:07.472Z,1003.24
2017-08-14T02:46:17.890Z,1003.24
2017-08-14T02:47:27.940Z,1003.25
2017-08-14T02:48:38.313Z,1003.27
2017-08-14T02:49:48.349Z,1003.31
2017-08-14T02:50:58.066Z,1003.32
2017-08-14T02:52:08.466Z,1003.33
2017-08-14T02:53:18.819Z,1003.36
2017-08-14T02:54:29.164Z,1003.33
2017-08-14T02:55:39.512Z,1003.31
2017-08-14T02:56:49.550Z,1003.31
2017-08-14T02:57:59.648Z,1003.36
2017-08-14T02:59:09.984Z,1003.32
2017-08-14T03:00:20.340Z,1003.35
2017-08-14T03:01:30.681Z,1003.37
2017-08-14T03:33:09.261Z,1003.5
2017-08-14T03:34:19.287Z,1003.5
2017-08-14T03:35:29.255Z,1003.54
2017-08-14T03:36:38.959Z,1003.55
2017-08-14T03:37:48.998Z,1003.55
2017-08-14T03:38:59.397Z,1003.53
2017-08-14T03:40:09.731Z,1003.58
2017-08-14T03:41:20.071Z,1003.59
2017-08-14T03:42:30.422Z,1003.58
2017-08-14T03:43:40.451Z,1003.59
2017-08-14T03:44:50.828Z,1003.59
2017-08-14T03:46:01.164Z,1003.63
2017-08-14T03:47:11.185Z,1003.58
2017-08-14T03:48:21.521Z,1003.61
2017-08-14T03:49:31.542Z,1003.65
2017-08-14T03:50:41.969Z,1003.66
2017-08-14T03:51:52.314Z,1003.65
2017-08-14T03:53:02.350Z,1003.69
2017-08-14T03:54:12.401Z,1003.74
2017-08-14T03:55:22.737Z,1003.73
2017-08-14T03:56:32.823Z,1003.74
2017-08-14T03:57:43.174Z,1003.72
2017-08-14T03:58:53.509Z,1003.8
2017-08-14T04:00:03.848Z,1003.78
2017-08-14T04:01:14.194Z,1003.84
2017-08-14T04:02:24.572Z,1003.84
2017-08-14T04:03:34.615Z,1003.83
2017-08-14T04:04:44.961Z,1003.88
2017-08-14T04:05:55.028Z,1003.84
2017-08-14T04:07:04.752Z,1003.87
2017-08-14T04:08:14.516Z,1003.88
2017-08-14T04:09:24.550Z,1003.84
2017-08-14T04:10:34.897Z,1003.82
2017-08-14T04:11:45.256Z,1003.82
2017-08-14T04:12:55.603Z,1003.85
2017-08-14T04:14:06.007Z,1003.87
2017-08-14T04:15:16.047Z,1003.86
2017-08-14T04:16:26.410Z,1003.88
2017-08-14T04:17:36.146Z,1003.89
2017-08-14T04:18:46.501Z,1003.88
2017-08-14T04:19:56.892Z,1003.9
2017-08-14T04:21:07.247Z,1003.93
2017-08-14T04:22:17.594Z,1003.98
2017-08-14T04:23:27.625Z,1003.99
2017-08-14T04:24:37.649Z,1003.96
2017-08-14T04:25:48.043Z,1003.93
2017-08-14T04:26:57.754Z,1003.96
2017-08-14T04:28:08.086Z,1004.01
2017-08-14T04:29:18.133Z,1004.01
2017-08-14T04:30:28.496Z,1004.07
2017-08-14T04:31:38.276Z,1004.02
2017-08-14T04:32:48.629Z,1003.98
2017-08-14T04:33:58.969Z,1003.99
2017-08-14T04:35:09.341Z,1004.01
2017-08-14T04:36:19.680Z,1003.99
2017-08-14T04:37:30.081Z,1003.99
2017-08-14T04:38:40.450Z,1004.04
2017-08-14T04:39:50.805Z,1004.12
2017-08-14T04:41:00.837Z,1004.19
2017-08-14T04:42:11.175Z,1004.08
2017-08-14T04:43:21.581Z,1003.98
2017-08-14T04:44:31.627Z,1004.03
2017-08-14T04:45:41.994Z,1004.02
2017-08-14T04:46:52.019Z,1004
2017-08-14T04:48:02.044Z,1004.01
2017-08-14T04:49:12.129Z,1004.02
2017-08-14T04:50:22.154Z,1004.04
2017-08-14T04:51:32.494Z,1004.05
2017-08-14T04:52:42.842Z,1004.1
2017-08-14T04:53:53.192Z,1004.22
2017-08-14T04:55:03.604Z,1004.41
2017-08-14T04:56:13.949Z,1004.68
2017-08-14T04:57:24.287Z,1004.66
2017-08-14T04:58:34.624Z,1004.61
2017-08-14T04:59:45.509Z,1004.56
2017-08-14T05:00:55.932Z,1004.56
2017-08-14T05:02:05.960Z,1004.54
2017-08-14T05:03:15.686Z,1004.53
2017-08-14T05:04:25.728Z,1004.51
2017-08-14T05:05:36.081Z,1004.55
2017-08-14T05:06:46.161Z,1004.58
2017-08-14T05:07:56.205Z,1004.56
2017-08-14T05:09:06.563Z,1004.59
2017-08-14T05:10:16.911Z,1004.55
2017-08-14T05:11:27.246Z,1004.58
2017-08-14T05:12:37.340Z,1004.6
2017-08-14T05:13:47.063Z,1004.6
2017-08-14T05:14:57.444Z,1004.62
2017-08-14T05:16:07.795Z,1004.64
2017-08-14T05:17:17.529Z,1004.68
2017-08-14T05:18:27.620Z,1004.67
2017-08-14T05:19:37.650Z,1004.69
2017-08-14T05:20:48.001Z,1004.69
2017-08-14T05:21:58.025Z,1004.73
2017-08-14T05:23:08.387Z,1004.74
2017-08-14T05:24:18.778Z,1004.74
2017-08-14T05:25:29.130Z,1005.08
2017-08-14T05:26:39.169Z,1005.51
2017-08-14T05:27:49.519Z,1005.56
2017-08-14T05:28:59.879Z,1005.25
2017-08-14T05:30:10.296Z,1005.13
2017-08-14T05:31:20.341Z,1005.19
2017-08-14T05:32:30.364Z,1005.15
2017-08-14T05:33:40.425Z,1005.03
2017-08-14T05:34:50.783Z,1004.96
2017-08-14T05:36:01.186Z,1005.13
2017-08-14T05:37:11.217Z,1005.1
2017-08-14T05:38:21.251Z,1005.03
2017-08-14T05:39:31.595Z,1005.1
2017-08-14T05:40:41.957Z,1004.99
2017-08-14T05:41:52.064Z,1004.99
2017-08-14T05:43:02.104Z,1005.08
2017-08-14T05:44:12.149Z,1005.12
2017-08-14T05:45:21.870Z,1005.09
2017-08-14T05:46:32.216Z,1005.14
2017-08-14T05:47:42.603Z,1005.14
2017-08-14T05:48:52.980Z,1005.04
2017-08-14T05:50:03.330Z,1004.98
2017-08-14T05:51:13.683Z,1004.98
2017-08-14T05:52:24.061Z,1005.08
2017-08-14T05:53:34.462Z,1005.1
2017-08-14T05:54:44.497Z,1005.03
2017-08-14T05:55:54.835Z,1004.95
2017-08-14T05:57:05.172Z,1004.69
2017-08-14T05:58:15.526Z,1004.46
2017-08-14T05:59:25.612Z,1004.45
2017-08-14T06:00:35.972Z,1004.44
2017-08-14T06:01:46.325Z,1004.4
2017-08-14T06:02:56.671Z,1004.42
2017-08-14T06:04:06.717Z,1004.47
2017-08-14T06:05:17.114Z,1004.4
2017-08-14T06:06:27.707Z,1004.4
2017-08-14T06:07:37.734Z,1004.4
2017-08-14T06:08:48.094Z,1004.45
2017-08-14T06:09:58.135Z,1004.47
2017-08-14T06:11:08.217Z,1004.47
2017-08-14T06:12:18.259Z,1004.5
2017-08-14T06:13:28.626Z,1004.51
2017-08-14T06:14:38.978Z,1004.51
2017-08-14T06:15:49.022Z,1004.53
2017-08-14T06:16:59.116Z,1004.53
2017-08-14T06:18:09.468Z,1004.59
2017-08-14T06:19:19.501Z,1004.53
2017-08-14T06:20:29.837Z,1004.53
2017-08-14T06:21:40.180Z,1004.54
2017-08-14T06:22:50.558Z,1004.54
2017-08-14T06:24:00.915Z,1004.55
2017-08-14T06:25:11.276Z,1004.59
2017-08-14T06:26:21.312Z,1004.58
2017-08-14T06:27:31.677Z,1004.56
2017-08-14T06:28:43.410Z,1004.56
2017-08-14T06:29:53.752Z,1004.56
2017-08-14T06:31:03.469Z,1004.56
2017-08-14T06:32:13.491Z,1004.55
2017-08-14T06:33:23.227Z,1004.57
2017-08-14T06:34:33.620Z,1004.57
2017-08-14T06:35:43.991Z,1004.62
2017-08-14T06:36:54.337Z,1004.58
2017-08-14T06:38:04.672Z,1004.61
2017-08-14T06:39:15.011Z,1004.55
2017-08-14T06:40:25.411Z,1004.58
2017-08-14T06:41:35.759Z,1004.57
2017-08-14T06:42:46.125Z,1004.6
2017-08-14T06:43:56.169Z,1004.59
2017-08-14T06:45:06.525Z,1004.57
2017-08-14T06:46:16.936Z,1004.57
2017-08-14T06:47:26.973Z,1004.55
2017-08-14T06:48:37.321Z,1004.59
2017-08-14T06:49:47.681Z,1004.59
2017-08-14T06:50:57.729Z,1004.6
2017-08-14T06:52:07.825Z,1004.59
2017-08-14T06:53:18.203Z,1004.56
2017-08-14T06:54:28.567Z,1004.59
2017-08-14T06:55:38.601Z,1004.59
2017-08-14T06:56:48.633Z,1004.6
2017-08-14T06:57:58.713Z,1004.62
2017-08-14T06:59:08.431Z,1004.61
2017-08-14T07:00:18.150Z,1004.62
2017-08-14T07:01:28.511Z,1004.62
2017-08-14T07:02:38.846Z,1004.63
2017-08-14T07:03:49.236Z,1004.57
2017-08-14T07:04:59.578Z,1004.61
2017-08-14T07:06:09.953Z,1004.6
2017-08-14T07:07:20.288Z,1004.62
2017-08-14T07:08:30.327Z,1004.59
2017-08-14T07:09:40.716Z,1004.59
2017-08-14T07:10:51.084Z,1004.59
2017-08-14T07:12:01.436Z,1004.56
2017-08-14T07:13:11.464Z,1004.6
2017-08-14T07:14:21.819Z,1004.58
2017-08-14T07:15:32.245Z,1004.6
2017-08-14T07:16:42.600Z,1004.57
2017-08-14T07:17:52.958Z,1004.56
2017-08-14T07:19:03.307Z,1004.59
2017-08-14T07:20:13.358Z,1004.64
2017-08-14T07:21:23.446Z,1004.55
2017-08-14T07:22:33.809Z,1004.58
2017-08-14T07:23:44.179Z,1004.56
2017-08-14T07:24:54.221Z,1004.59
2017-08-14T07:26:04.256Z,1004.57
2017-08-14T07:27:14.349Z,1004.6
2017-08-14T07:28:24.700Z,1004.6
2017-08-14T07:29:35.052Z,1004.64
2017-08-14T07:30:45.095Z,1004.62
2017-08-14T07:31:55.443Z,1004.59
2017-08-14T07:33:05.851Z,1004.65
2017-08-14T07:34:15.903Z,1004.67
2017-08-14T07:35:27.226Z,1004.68
2017-08-14T07:36:37.587Z,1004.68
2017-08-14T07:37:47.934Z,1004.67
2017-08-14T07:38:58.280Z,1004.71
2017-08-14T07:40:08.633Z,1004.64
2017-08-14T07:41:18.991Z,1004.67
2017-08-14T07:42:29.337Z,1004.7
2017-08-14T07:43:39.376Z,1004.69
2017-08-14T07:44:49.781Z,1004.71
2017-08-14T07:46:00.124Z,1004.74
2017-08-14T07:47:10.472Z,1004.7
2017-08-14T07:48:20.508Z,1004.68
2017-08-14T07:49:30.877Z,1004.64
2017-08-14T07:50:40.978Z,1004.57
2017-08-14T07:51:51.347Z,1004.64
2017-08-14T07:53:01.705Z,1004.65
2017-08-14T07:54:12.036Z,1004.64
2017-08-14T07:55:22.378Z,1004.63
2017-08-14T07:56:32.164Z,1004.61
2017-08-14T07:57:43.676Z,1004.66
2017-08-14T07:58:54.056Z,1004.68
2017-08-14T08:00:04.118Z,1004.67
2017-08-14T08:01:14.485Z,1004.66
2017-08-14T08:02:24.563Z,1004.68
2017-08-14T08:03:34.918Z,1004.66
2017-08-14T08:04:44.658Z,1004.67
2017-08-14T08:05:55.027Z,1004.72
2017-08-14T08:07:05.384Z,1004.68
2017-08-14T08:08:15.490Z,1004.7
2017-08-14T08:09:27.216Z,1004.72
2017-08-14T08:10:37.597Z,1004.71
2017-08-14T08:11:47.937Z,1004.74
2017-08-14T08:12:57.971Z,1004.75
2017-08-14T08:14:08.395Z,1004.72
2017-08-14T08:15:18.761Z,1004.74
2017-08-14T08:16:29.123Z,1004.77
2017-08-14T08:17:39.466Z,1004.75
2017-08-14T08:18:49.491Z,1004.74
2017-08-14T08:19:59.930Z,1004.75
2017-08-14T08:21:09.977Z,1004.71
2017-08-14T08:22:20.334Z,1004.76
2017-08-14T08:23:30.685Z,1004.76
2017-08-14T08:24:41.030Z,1004.73
2017-08-14T08:25:53.948Z,1004.76
2017-08-14T08:27:04.313Z,1004.76
2017-08-14T08:28:14.667Z,1004.76
2017-08-14T08:29:25.011Z,1004.76
2017-08-14T08:30:35.371Z,1004.74
2017-08-14T08:31:47.296Z,1004.74
2017-08-14T08:32:57.664Z,1004.74
2017-08-14T08:34:08.026Z,1004.73
2017-08-14T08:35:18.117Z,1004.76
2017-08-14T08:36:28.460Z,1004.73
2017-08-14T08:37:38.888Z,1004.72
2017-08-14T08:38:49.291Z,1004.7
2017-08-14T08:39:59.652Z,1004.73
2017-08-14T08:41:09.705Z,1004.7
2017-08-14T08:42:21.276Z,1004.69
2017-08-14T08:43:31.697Z,1004.7
2017-08-14T08:44:41.942Z,1004.68
2017-08-14T08:45:52.337Z,1004.66
2017-08-14T08:47:02.907Z,1004.62
2017-08-14T08:48:13.395Z,1004.63
2017-08-14T08:49:23.811Z,1004.65
2017-08-14T08:50:33.850Z,1004.64
2017-08-14T08:51:44.233Z,1004.64
2017-08-14T08:52:54.300Z,1004.67
2017-08-14T08:54:04.688Z,1004.68
2017-08-14T08:55:15.163Z,1004.66
2017-08-14T08:56:25.544Z,1004.63
2017-08-14T08:57:35.925Z,1004.66
2017-08-14T08:58:45.988Z,1004.7
2017-08-14T08:59:56.399Z,1004.67
2017-08-14T09:01:06.889Z,1004.67
2017-08-14T09:02:17.536Z,1004.65
2017-08-14T09:03:28.182Z,1004.58
2017-08-14T09:04:37.956Z,1004.6
2017-08-14T09:05:48.396Z,1004.62
2017-08-14T09:06:58.569Z,1004.57
2017-08-14T09:08:08.656Z,1004.57
2017-08-14T09:09:19.034Z,1004.57
2017-08-14T09:10:29.095Z,1004.57
2017-08-14T09:11:39.463Z,1004.53
2017-08-14T09:12:49.926Z,1004.55
2017-08-14T09:13:59.988Z,1004.53
2017-08-14T09:15:10.602Z,1004.53
2017-08-14T09:16:21.011Z,1004.56
2017-08-14T09:17:31.420Z,1004.54
2017-08-14T09:18:41.557Z,1004.52
2017-08-14T09:19:51.621Z,1004.53
2017-08-14T09:21:02.010Z,1004.52
2017-08-14T09:22:12.661Z,1004.51
2017-08-14T09:23:23.024Z,1004.5
2017-08-14T09:24:33.460Z,1004.5
2017-08-14T09:25:43.532Z,1004.46
2017-08-14T09:26:53.928Z,1004.52
2017-08-14T09:28:04.315Z,1004.45
2017-08-14T09:29:14.704Z,1004.51
2017-08-14T09:30:25.150Z,1004.53
2017-08-14T09:31:35.546Z,1004.5
2017-08-14T09:32:45.929Z,1004.47
2017-08-14T09:33:56.320Z,1004.48
2017-08-14T09:35:06.690Z,1004.47
2017-08-14T09:36:16.797Z,1004.51
2017-08-14T09:37:27.165Z,1004.46
2017-08-14T09:38:37.532Z,1004.48
2017-08-14T09:39:47.923Z,1004.47
2017-08-14T09:40:58.295Z,1004.44
2017-08-14T09:42:08.440Z,1004.45
2017-08-14T09:43:18.840Z,1004.47
2017-08-14T09:44:29.212Z,1004.48
2017-08-14T09:45:39.584Z,1004.47
2017-08-14T09:46:49.976Z,1004.48
2017-08-14T09:48:00.394Z,1004.48
2017-08-14T09:49:10.775Z,1004.46
2017-08-14T09:50:21.143Z,1004.42
2017-08-14T09:51:31.512Z,1004.41
2017-08-14T09:52:41.888Z,1004.41
2017-08-14T09:53:52.309Z,1004.44
2017-08-14T09:55:02.685Z,1004.45
2017-08-14T09:56:13.099Z,1004.46
2017-08-14T09:57:23.470Z,1004.45
2017-08-14T09:58:33.828Z,1004.43
2017-08-14T09:59:43.976Z,1004.44
2017-08-14T10:00:54.371Z,1004.44
2017-08-14T10:02:04.749Z,1004.49
2017-08-14T10:03:14.485Z,1004.44
2017-08-14T10:04:24.851Z,1004.44
2017-08-14T10:05:34.631Z,1004.43
2017-08-14T10:06:44.988Z,1004.44
2017-08-14T10:07:55.043Z,1004.45
2017-08-14T10:09:05.431Z,1004.35
2017-08-14T10:10:15.178Z,1004.38
2017-08-14T10:11:25.301Z,1004.39
2017-08-14T10:12:35.681Z,1004.34
2017-08-14T10:13:45.762Z,1004.34
2017-08-14T10:14:56.123Z,1004.31
2017-08-14T10:16:06.488Z,1004.32
2017-08-14T10:17:16.912Z,1004.3
2017-08-14T10:18:27.278Z,1004.27
2017-08-14T10:19:37.661Z,1004.27
2017-08-14T10:20:48.230Z,1004.25
2017-08-14T10:21:58.584Z,1004.28
2017-08-14T10:23:08.994Z,1004.24
2017-08-14T10:24:19.360Z,1004.24
2017-08-14T10:25:29.744Z,1004.23
2017-08-14T10:26:40.113Z,1004.32
2017-08-14T10:27:50.479Z,1004.29
2017-08-14T10:29:00.888Z,1004.28
2017-08-14T10:30:10.949Z,1004.25
2017-08-14T10:31:22.169Z,1004.23
2017-08-14T10:32:32.231Z,1004.21
2017-08-14T10:33:42.578Z,1004.2
2017-08-14T10:34:52.999Z,1004.21
2017-08-14T10:36:03.059Z,1004.2
2017-08-14T10:37:13.475Z,1004.2
2017-08-14T10:38:23.516Z,1004.18
2017-08-14T10:39:33.580Z,1004.16
2017-08-14T10:40:46.118Z,1004.15
2017-08-14T10:41:56.490Z,1004.1
2017-08-14T10:43:06.551Z,1004.08
2017-08-14T10:44:16.922Z,1004.09
2017-08-14T10:45:26.994Z,1004.06
2017-08-14T10:46:36.780Z,1004.1
2017-08-14T10:47:46.839Z,1004.15
2017-08-14T10:48:57.195Z,1004.11
2017-08-14T10:50:09.821Z,1004.06
2017-08-14T10:51:19.872Z,1004.06
2017-08-14T10:52:30.280Z,1004.05
2017-08-14T10:53:40.650Z,1004.05
2017-08-14T10:54:50.699Z,1004.01
2017-08-14T10:56:01.045Z,1004.01
2017-08-14T10:57:11.096Z,1004.01
2017-08-14T10:58:21.502Z,1004.04
2017-08-14T10:59:31.568Z,1004.03
2017-08-14T11:00:41.932Z,1003.97
2017-08-14T11:01:52.298Z,1003.97
2017-08-14T11:03:02.681Z,1003.98
2017-08-14T11:04:13.088Z,1003.97
2017-08-14T11:05:23.145Z,1003.95
2017-08-14T11:06:33.510Z,1003.94
2017-08-14T11:07:43.862Z,1003.93
2017-08-14T11:08:54.206Z,1003.94
2017-08-14T11:10:04.605Z,1003.95
2017-08-14T11:11:14.650Z,1003.94
2017-08-14T11:12:25.023Z,1003.95
2017-08-14T11:13:35.427Z,1003.91
2017-08-14T11:14:45.934Z,1003.9
2017-08-14T11:15:56.365Z,1003.89
2017-08-14T11:17:08.628Z,1003.88
2017-08-14T11:18:19.012Z,1003.86
2017-08-14T11:19:29.390Z,1003.85
2017-08-14T11:20:39.771Z,1003.85
2017-08-14T11:21:50.299Z,1003.86
2017-08-14T11:23:01.644Z,1003.8
2017-08-14T11:24:12.028Z,1003.79
2017-08-14T11:25:22.384Z,1003.79
2017-08-14T11:26:32.735Z,1003.8
2017-08-14T11:27:43.163Z,1003.78
2017-08-14T11:28:53.211Z,1003.76
2017-08-14T11:30:03.576Z,1003.73
2017-08-14T11:31:13.936Z,1003.75
2017-08-14T11:32:23.663Z,1003.74
2017-08-14T11:33:34.083Z,1003.74
2017-08-14T11:34:45.378Z,1003.73
2017-08-14T11:35:55.451Z,1003.73
2017-08-14T11:37:05.865Z,1003.74
2017-08-14T11:38:16.238Z,1003.73
2017-08-14T11:39:26.661Z,1003.72
2017-08-14T11:40:37.052Z,1003.71
2017-08-14T11:41:49.328Z,1003.74
2017-08-14T11:42:59.676Z,1003.71
2017-08-14T11:44:11.706Z,1003.67
2017-08-14T11:45:22.134Z,1003.63
2017-08-14T11:46:32.540Z,1003.62
2017-08-14T11:47:42.939Z,1003.61
2017-08-14T11:48:52.977Z,1003.6
2017-08-14T11:50:03.063Z,1003.61
2017-08-14T11:51:13.476Z,1003.57
2017-08-14T11:52:23.855Z,1003.6
2017-08-14T11:53:34.208Z,1003.63
2017-08-14T11:54:44.576Z,1003.59
2017-08-14T11:55:54.931Z,1003.59
2017-08-14T11:57:05.364Z,1003.55
2017-08-14T11:58:16.880Z,1003.54
2017-08-14T11:59:26.948Z,1003.49
2017-08-14T12:00:37.313Z,1003.48
2017-08-14T12:01:48.415Z,1003.47
2017-08-14T12:02:58.841Z,1003.45
2017-08-14T12:04:09.462Z,1003.47
2017-08-14T12:05:19.837Z,1003.49
2017-08-14T12:06:30.205Z,1003.48
2017-08-14T12:07:40.629Z,1003.46
2017-08-14T12:08:51.048Z,1003.45
2017-08-14T12:10:01.425Z,1003.43
2017-08-14T12:11:11.789Z,1003.41
2017-08-14T12:12:22.155Z,1003.4
2017-08-14T12:13:32.525Z,1003.37
2017-08-14T12:14:42.650Z,1003.4
2017-08-14T12:15:53.034Z,1003.37
2017-08-14T12:17:03.112Z,1003.42
2017-08-14T12:18:13.508Z,1003.38
2017-08-14T12:19:23.870Z,1003.43
2017-08-14T12:20:36.623Z,1003.39
2017-08-14T12:21:46.703Z,1003.38
2017-08-14T12:22:57.102Z,1003.36
2017-08-14T12:24:07.154Z,1003.36
2017-08-14T12:25:17.522Z,1003.36
2017-08-14T12:26:27.637Z,1003.34
2017-08-14T12:27:38.035Z,1003.32
2017-08-14T12:28:48.085Z,1003.32
2017-08-14T12:30:00.468Z,1003.32
2017-08-14T12:31:10.827Z,1003.36
2017-08-14T12:32:22.939Z,1003.35
2017-08-14T12:33:32.994Z,1003.35
2017-08-14T12:34:43.043Z,1003.32
2017-08-14T12:35:53.401Z,1003.3
2017-08-14T12:37:03.780Z,1003.25
2017-08-14T12:38:14.215Z,1003.17
2017-08-14T12:39:24.558Z,1003.2
2017-08-14T12:40:34.942Z,1003.24
2017-08-14T12:41:45.342Z,1003.16
2017-08-14T12:42:55.776Z,1003.18
2017-08-14T12:44:06.150Z,1003.16
2017-08-14T12:45:16.184Z,1003.18
2017-08-14T12:46:26.556Z,1003.09
2017-08-14T12:47:36.596Z,1003.11
2017-08-14T12:48:47.033Z,1003.13
2017-08-14T12:49:57.410Z,1003.08
2017-08-14T12:51:07.473Z,1003.1
2017-08-14T12:52:17.847Z,1003.12
2017-08-14T12:53:29.686Z,1003.12
2017-08-14T12:54:40.120Z,1003.07
2017-08-14T12:55:50.463Z,1003.08
2017-08-14T12:57:00.808Z,1003.07
2017-08-14T12:58:10.579Z,1003.08
2017-08-14T12:59:20.632Z,1003.06
2017-08-14T13:00:30.737Z,1003.04
2017-08-14T13:01:40.801Z,1003.01
2017-08-14T13:02:50.853Z,1003.05
2017-08-14T13:04:01.226Z,1003.03
2017-08-14T13:05:11.584Z,1002.99
2017-08-14T13:06:21.684Z,1003.03
2017-08-14T13:07:32.076Z,1002.99
2017-08-14T13:08:42.135Z,1003.02
2017-08-14T13:09:52.504Z,1002.98
2017-08-14T13:11:02.556Z,1002.95
2017-08-14T13:12:12.968Z,1003.05
2017-08-14T13:13:23.340Z,1002.97
2017-08-14T13:14:33.710Z,1002.97
2017-08-14T13:15:43.754Z,1002.95
2017-08-14T13:16:54.123Z,1002.92
2017-08-14T13:18:04.181Z,1002.93
2017-08-14T13:19:14.568Z,1002.91
2017-08-14T13:20:24.353Z,1002.93
2017-08-14T13:21:34.725Z,1002.92
2017-08-14T13:22:44.809Z,1002.9
2017-08-14T13:23:54.871Z,1002.9
2017-08-14T13:25:05.226Z,1002.9
2017-08-14T13:26:15.338Z,1002.88
2017-08-14T13:27:28.209Z,1002.86
2017-08-14T13:28:38.582Z,1002.86
2017-08-14T13:29:50.556Z,1002.9
2017-08-14T13:31:00.926Z,1002.85
2017-08-14T13:32:11.340Z,1002.89
2017-08-14T13:33:21.701Z,1002.89
2017-08-14T13:34:32.070Z,1002.89
2017-08-14T13:35:41.786Z,1002.88
2017-08-14T13:36:52.157Z,1002.86
2017-08-14T13:38:02.577Z,1002.83
2017-08-14T13:39:12.955Z,1002.85
2017-08-14T13:40:23.318Z,1002.86
2017-08-14T13:41:34.450Z,1002.82
2017-08-14T13:42:44.810Z,1002.85
2017-08-14T13:43:56.838Z,1002.77
2017-08-14T13:45:07.214Z,1002.77
2017-08-14T13:46:17.303Z,1002.77
2017-08-14T13:47:27.337Z,1002.8
2017-08-14T13:48:43.678Z,1002.76
2017-08-14T13:49:56.894Z,1002.78
2017-08-14T13:51:07.258Z,1002.77
2017-08-14T13:52:17.306Z,1002.79
2017-08-14T13:53:27.695Z,1002.77
2017-08-14T13:54:38.114Z,1002.75
2017-08-14T13:55:48.183Z,1002.75
2017-08-14T13:56:58.581Z,1002.72
2017-08-14T13:58:10.962Z,1002.73
2017-08-14T13:59:21.017Z,1002.69
2017-08-14T14:00:31.434Z,1002.7
2017-08-14T14:01:41.821Z,1002.69
2017-08-14T14:02:52.206Z,1002.69
2017-08-14T14:04:02.284Z,1002.69
2017-08-14T14:05:12.653Z,1002.7
2017-08-14T14:06:23.087Z,1002.68
2017-08-14T14:07:33.479Z,1002.66
2017-08-14T14:08:43.864Z,1002.67
2017-08-14T14:09:54.226Z,1002.68
2017-08-14T14:11:04.612Z,1002.63
2017-08-14T14:12:15.035Z,1002.64
2017-08-14T14:13:27.366Z,1002.63
2017-08-14T14:14:37.739Z,1002.63
2017-08-14T14:15:48.106Z,1002.54
2017-08-14T14:16:58.471Z,1002.55
2017-08-14T14:18:08.262Z,1002.57
2017-08-14T14:19:18.639Z,1002.55
2017-08-14T14:20:28.995Z,1002.57
2017-08-14T14:21:39.055Z,1002.58
2017-08-14T14:22:49.429Z,1002.55
2017-08-14T14:23:59.877Z,1002.57
2017-08-14T14:25:10.248Z,1002.55
2017-08-14T14:26:20.611Z,1002.54
2017-08-14T14:27:30.978Z,1002.52
2017-08-14T14:28:41.345Z,1002.53
2017-08-14T14:29:51.752Z,1002.54
2017-08-14T14:31:02.137Z,1002.51
2017-08-14T14:32:12.514Z,1002.53
2017-08-14T14:33:22.563Z,1002.53
2017-08-14T14:34:32.919Z,1002.53
2017-08-14T14:35:43.573Z,1002.52
2017-08-14T14:36:53.937Z,1002.53
2017-08-14T14:38:03.983Z,1002.54
2017-08-14T14:39:14.348Z,1002.48
2017-08-14T14:40:24.380Z,1002.51
2017-08-14T14:41:34.810Z,1002.52
2017-08-14T14:42:44.869Z,1002.51
2017-08-14T14:43:59.956Z,1002.45